KLM994 EHGG-EHRD
Flight info
| Callsign | KLM994 |
|---|---|
| Flight time | 0h 36m |
| Altitude | 15000 |
| Route | EHGG/05 N0374F200 ENKO4C ENKOS ENKO3R EHRD/06 |
| Aircraft | A20N/M-SDE2E3FGHIRWXY/LB1 |
Departure
| Time | 2026-05-06 17:36 |
|---|---|
| Airport | Groningen Airport Eelde (EHGG) |
Arrival
| Time | 2026-05-06 18:12 |
|---|---|
| Airport | Rotterdam The Hague Airport (EHRD) |
| Time | Latitude | Longitude | Altitude | Speed | Heading |
|---|---|---|---|---|---|
| 2026-05-06 17:23 | 53.12733 | 6.58403 | 20 ft | 0 kts | 282° |
| 2026-05-06 17:30 | 53.12733 | 6.58398 | 19 ft | 2 kts | 276° |
| 2026-05-06 17:31 | 53.12723 | 6.58386 | 19 ft | 2 kts | 214° |
| 2026-05-06 17:31 | 53.12665 | 6.58348 | 20 ft | 16 kts | 201° |
| 2026-05-06 17:31 | 53.12578 | 6.58247 | 20 ft | 15 kts | 229° |
| 2026-05-06 17:31 | 53.12517 | 6.58120 | 20 ft | 13 kts | 234° |
| 2026-05-06 17:32 | 53.12462 | 6.58000 | 20 ft | 13 kts | 230° |
| 2026-05-06 17:32 | 53.12405 | 6.57890 | 20 ft | 13 kts | 223° |
| 2026-05-06 17:32 | 53.12308 | 6.57836 | 21 ft | 19 kts | 188° |
| 2026-05-06 17:32 | 53.12165 | 6.57782 | 26 ft | 20 kts | 204° |
| 2026-05-06 17:33 | 53.12063 | 6.57627 | 22 ft | 20 kts | 231° |
| 2026-05-06 17:33 | 53.11982 | 6.57453 | 22 ft | 18 kts | 232° |
| 2026-05-06 17:33 | 53.11906 | 6.57296 | 23 ft | 17 kts | 233° |
| 2026-05-06 17:33 | 53.11837 | 6.57149 | 23 ft | 15 kts | 230° |
| 2026-05-06 17:34 | 53.11773 | 6.57016 | 23 ft | 14 kts | 232° |
| 2026-05-06 17:34 | 53.11715 | 6.56892 | 23 ft | 13 kts | 232° |
| 2026-05-06 17:34 | 53.11647 | 6.56801 | 23 ft | 12 kts | 195° |
| 2026-05-06 17:34 | 53.11586 | 6.56821 | 24 ft | 0 kts | 148° |
| 2026-05-06 17:35 | 53.11586 | 6.56822 | 24 ft | 0 kts | 148° |
| 2026-05-06 17:35 | 53.11550 | 6.56858 | 24 ft | 14 kts | 152° |
| 2026-05-06 17:35 | 53.11508 | 6.56892 | 28 ft | 5 kts | 120° |
| 2026-05-06 17:36 | 53.11801 | 6.57527 | 24 ft | 109 kts | 51° |
| 2026-05-06 17:36 | 53.12442 | 6.58849 | 173 ft | 169 kts | 49° |
| 2026-05-06 17:36 | 53.13156 | 6.60332 | 1290 ft | 162 kts | 47° |
| 2026-05-06 17:36 | 53.13885 | 6.61763 | 1975 ft | 168 kts | 48° |
| 2026-05-06 17:37 | 53.14671 | 6.63381 | 2380 ft | 193 kts | 57° |
| 2026-05-06 17:37 | 53.14972 | 6.65709 | 2890 ft | 226 kts | 95° |
| 2026-05-06 17:37 | 53.14209 | 6.68143 | 3612 ft | 255 kts | 134° |
| 2026-05-06 17:37 | 53.12686 | 6.69786 | 4624 ft | 265 kts | 149° |
| 2026-05-06 17:38 | 53.10972 | 6.71031 | 5676 ft | 271 kts | 154° |
| 2026-05-06 17:38 | 53.09191 | 6.72137 | 6697 ft | 274 kts | 156° |
| 2026-05-06 17:38 | 53.07409 | 6.73211 | 7699 ft | 276 kts | 156° |
| 2026-05-06 17:38 | 53.05602 | 6.74332 | 8696 ft | 281 kts | 158° |
| 2026-05-06 17:39 | 53.03667 | 6.75084 | 9509 ft | 292 kts | 176° |
| 2026-05-06 17:39 | 53.01642 | 6.74744 | 9831 ft | 293 kts | 198° |
| 2026-05-06 17:39 | 52.99820 | 6.73204 | 9901 ft | 307 kts | 219° |
| 2026-05-06 17:39 | 52.98353 | 6.70441 | 9916 ft | 322 kts | 241° |
| 2026-05-06 17:40 | 52.97784 | 6.68189 | 9919 ft | 307 kts | 257° |
| 2026-05-06 17:40 | 52.97470 | 6.64837 | 9916 ft | 291 kts | 264° |
| 2026-05-06 17:40 | 52.97220 | 6.61546 | 9916 ft | 286 kts | 264° |
| 2026-05-06 17:40 | 52.96966 | 6.58279 | 9909 ft | 285 kts | 264° |
| 2026-05-06 17:41 | 52.96707 | 6.55013 | 9912 ft | 286 kts | 264° |
| 2026-05-06 17:41 | 52.96442 | 6.51741 | 9927 ft | 287 kts | 263° |
| 2026-05-06 17:41 | 52.96176 | 6.48461 | 9923 ft | 287 kts | 264° |
| 2026-05-06 17:41 | 52.95853 | 6.45193 | 9930 ft | 287 kts | 258° |
| 2026-05-06 17:42 | 52.95257 | 6.42022 | 9919 ft | 288 kts | 250° |
| 2026-05-06 17:42 | 52.94478 | 6.38964 | 9921 ft | 288 kts | 249° |
| 2026-05-06 17:42 | 52.93696 | 6.35905 | 9926 ft | 288 kts | 249° |
| 2026-05-06 17:42 | 52.92914 | 6.32843 | 9926 ft | 288 kts | 248° |
| 2026-05-06 17:43 | 52.92133 | 6.29789 | 9937 ft | 288 kts | 248° |
| 2026-05-06 17:43 | 52.91348 | 6.26728 | 9925 ft | 288 kts | 248° |
| 2026-05-06 17:43 | 52.90562 | 6.23670 | 9927 ft | 288 kts | 249° |
| 2026-05-06 17:43 | 52.89785 | 6.20615 | 9924 ft | 288 kts | 250° |
| 2026-05-06 17:44 | 52.89063 | 6.17522 | 9925 ft | 288 kts | 251° |
| 2026-05-06 17:44 | 52.88377 | 6.14410 | 9933 ft | 288 kts | 251° |
| 2026-05-06 17:44 | 52.87699 | 6.11291 | 9936 ft | 288 kts | 252° |
| 2026-05-06 17:44 | 52.87016 | 6.08169 | 9925 ft | 288 kts | 251° |
| 2026-05-06 17:45 | 52.86328 | 6.05058 | 9934 ft | 288 kts | 251° |
| 2026-05-06 17:45 | 52.85634 | 6.01954 | 9927 ft | 288 kts | 251° |
| 2026-05-06 17:45 | 52.84936 | 5.98853 | 9926 ft | 288 kts | 251° |
| 2026-05-06 17:45 | 52.84233 | 5.95750 | 9933 ft | 288 kts | 251° |
| 2026-05-06 17:46 | 52.83530 | 5.92652 | 9935 ft | 288 kts | 251° |
| 2026-05-06 17:46 | 52.82827 | 5.89552 | 9927 ft | 288 kts | 251° |
| 2026-05-06 17:46 | 52.82123 | 5.86457 | 9927 ft | 288 kts | 251° |
| 2026-05-06 17:46 | 52.81421 | 5.83362 | 9943 ft | 288 kts | 251° |
| 2026-05-06 17:47 | 52.80719 | 5.80265 | 9936 ft | 288 kts | 251° |
| 2026-05-06 17:47 | 52.80017 | 5.77170 | 9936 ft | 288 kts | 250° |
| 2026-05-06 17:47 | 52.79312 | 5.74073 | 9928 ft | 288 kts | 251° |
| 2026-05-06 17:47 | 52.78607 | 5.70983 | 9933 ft | 288 kts | 251° |
| 2026-05-06 17:48 | 52.77900 | 5.67885 | 9933 ft | 288 kts | 251° |
| 2026-05-06 17:48 | 52.77193 | 5.64798 | 9937 ft | 288 kts | 251° |
| 2026-05-06 17:48 | 52.76482 | 5.61705 | 9940 ft | 288 kts | 251° |
| 2026-05-06 17:48 | 52.75770 | 5.58615 | 9938 ft | 288 kts | 250° |
| 2026-05-06 17:49 | 52.75066 | 5.55564 | 9932 ft | 288 kts | 251° |
| 2026-05-06 17:49 | 52.74352 | 5.52476 | 9940 ft | 288 kts | 250° |
| 2026-05-06 17:49 | 52.73639 | 5.49398 | 9942 ft | 287 kts | 251° |
| 2026-05-06 17:49 | 52.72927 | 5.46325 | 9937 ft | 287 kts | 250° |
| 2026-05-06 17:50 | 52.72215 | 5.43248 | 9920 ft | 287 kts | 250° |
| 2026-05-06 17:50 | 52.71501 | 5.40167 | 9812 ft | 289 kts | 250° |
| 2026-05-06 17:50 | 52.70767 | 5.37012 | 8976 ft | 299 kts | 250° |
| 2026-05-06 17:50 | 52.70025 | 5.33822 | 8171 ft | 297 kts | 250° |
| 2026-05-06 17:51 | 52.69281 | 5.30704 | 7672 ft | 286 kts | 246° |
| 2026-05-06 17:51 | 52.68298 | 5.27954 | 7286 ft | 273 kts | 233° |
| 2026-05-06 17:51 | 52.67044 | 5.25697 | 6916 ft | 262 kts | 221° |
| 2026-05-06 17:51 | 52.65597 | 5.23958 | 6796 ft | 253 kts | 209° |
| 2026-05-06 17:52 | 52.64007 | 5.22706 | 6746 ft | 254 kts | 198° |
| 2026-05-06 17:52 | 52.62317 | 5.21899 | 6689 ft | 253 kts | 192° |
| 2026-05-06 17:52 | 52.60611 | 5.21152 | 6626 ft | 254 kts | 193° |
| 2026-05-06 17:52 | 52.58895 | 5.20396 | 6254 ft | 256 kts | 192° |
| 2026-05-06 17:53 | 52.57180 | 5.19636 | 5855 ft | 255 kts | 193° |
| 2026-05-06 17:53 | 52.55468 | 5.18874 | 5460 ft | 255 kts | 193° |
| 2026-05-06 17:53 | 52.53758 | 5.18117 | 5072 ft | 254 kts | 193° |
| 2026-05-06 17:53 | 52.52052 | 5.17366 | 4682 ft | 254 kts | 192° |
| 2026-05-06 17:54 | 52.50346 | 5.16614 | 4291 ft | 254 kts | 193° |
| 2026-05-06 17:54 | 52.48637 | 5.15860 | 3899 ft | 254 kts | 192° |
| 2026-05-06 17:54 | 52.46934 | 5.15108 | 3508 ft | 254 kts | 192° |
| 2026-05-06 17:54 | 52.45230 | 5.14359 | 3120 ft | 254 kts | 192° |
| 2026-05-06 17:55 | 52.43555 | 5.13623 | 3005 ft | 243 kts | 193° |
| 2026-05-06 17:55 | 52.41920 | 5.12906 | 3012 ft | 243 kts | 193° |
| 2026-05-06 17:55 | 52.40294 | 5.12197 | 3014 ft | 242 kts | 193° |
| 2026-05-06 17:55 | 52.38665 | 5.11488 | 3013 ft | 241 kts | 193° |
| 2026-05-06 17:56 | 52.37040 | 5.10779 | 3009 ft | 243 kts | 193° |
| 2026-05-06 17:56 | 52.35405 | 5.10063 | 3011 ft | 243 kts | 195° |
| 2026-05-06 17:56 | 52.33821 | 5.09100 | 3011 ft | 244 kts | 204° |
| 2026-05-06 17:56 | 52.32335 | 5.07752 | 3010 ft | 245 kts | 213° |
| 2026-05-06 17:57 | 52.30965 | 5.06091 | 3009 ft | 245 kts | 218° |
| 2026-05-06 17:57 | 52.29613 | 5.04397 | 3010 ft | 245 kts | 217° |
| 2026-05-06 17:57 | 52.28255 | 5.02708 | 3010 ft | 244 kts | 217° |
| 2026-05-06 17:57 | 52.26904 | 5.01030 | 3008 ft | 244 kts | 217° |
| 2026-05-06 17:58 | 52.25549 | 4.99352 | 3010 ft | 245 kts | 217° |
| 2026-05-06 17:58 | 52.24189 | 4.97673 | 3008 ft | 244 kts | 217° |
| 2026-05-06 17:58 | 52.22833 | 4.96000 | 3008 ft | 245 kts | 217° |
| 2026-05-06 17:58 | 52.21474 | 4.94324 | 3008 ft | 245 kts | 217° |
| 2026-05-06 17:59 | 52.20116 | 4.92650 | 3013 ft | 245 kts | 217° |
| 2026-05-06 17:59 | 52.18759 | 4.90977 | 3004 ft | 244 kts | 216° |
| 2026-05-06 17:59 | 52.17407 | 4.89309 | 3009 ft | 244 kts | 216° |
| 2026-05-06 17:59 | 52.16053 | 4.87639 | 3008 ft | 244 kts | 217° |
| 2026-05-06 18:00 | 52.14697 | 4.85967 | 3006 ft | 245 kts | 216° |
| 2026-05-06 18:00 | 52.13340 | 4.84294 | 3006 ft | 245 kts | 216° |
| 2026-05-06 18:00 | 52.11985 | 4.82624 | 3004 ft | 244 kts | 217° |
| 2026-05-06 18:00 | 52.10634 | 4.80960 | 3012 ft | 243 kts | 216° |
| 2026-05-06 18:01 | 52.09285 | 4.79299 | 3006 ft | 243 kts | 217° |
| 2026-05-06 18:01 | 52.07951 | 4.77661 | 3011 ft | 244 kts | 217° |
| 2026-05-06 18:01 | 52.06600 | 4.76007 | 3009 ft | 243 kts | 217° |
| 2026-05-06 18:01 | 52.05231 | 4.74328 | 3011 ft | 243 kts | 217° |
| 2026-05-06 18:02 | 52.03877 | 4.72668 | 3014 ft | 243 kts | 217° |
| 2026-05-06 18:02 | 52.02529 | 4.71015 | 3016 ft | 243 kts | 216° |
| 2026-05-06 18:02 | 52.01186 | 4.69370 | 3018 ft | 242 kts | 216° |
| 2026-05-06 18:02 | 51.99860 | 4.67748 | 3008 ft | 241 kts | 216° |
| 2026-05-06 18:03 | 51.98514 | 4.66105 | 3006 ft | 242 kts | 216° |
| 2026-05-06 18:03 | 51.97165 | 4.64459 | 3002 ft | 242 kts | 216° |
| 2026-05-06 18:03 | 51.95820 | 4.62823 | 2791 ft | 240 kts | 216° |
| 2026-05-06 18:03 | 51.94486 | 4.61201 | 2188 ft | 239 kts | 216° |
| 2026-05-06 18:04 | 51.93170 | 4.59600 | 2019 ft | 238 kts | 216° |
| 2026-05-06 18:04 | 51.91845 | 4.57987 | 2005 ft | 238 kts | 216° |
| 2026-05-06 18:04 | 51.90526 | 4.56372 | 2006 ft | 239 kts | 217° |
| 2026-05-06 18:04 | 51.89422 | 4.54366 | 2008 ft | 240 kts | 239° |
| 2026-05-06 18:05 | 51.88596 | 4.52023 | 2006 ft | 240 kts | 242° |
| 2026-05-06 18:05 | 51.87804 | 4.49626 | 2008 ft | 241 kts | 243° |
| 2026-05-06 18:05 | 51.87016 | 4.47229 | 2007 ft | 240 kts | 243° |
| 2026-05-06 18:05 | 51.86236 | 4.44844 | 2007 ft | 240 kts | 243° |
| 2026-05-06 18:06 | 51.85460 | 4.42470 | 2012 ft | 238 kts | 242° |
| 2026-05-06 18:06 | 51.84690 | 4.40094 | 2009 ft | 238 kts | 243° |
| 2026-05-06 18:06 | 51.83919 | 4.37729 | 2007 ft | 238 kts | 242° |
| 2026-05-06 18:06 | 51.83146 | 4.35353 | 2007 ft | 238 kts | 243° |
| 2026-05-06 18:07 | 51.82375 | 4.32974 | 2010 ft | 239 kts | 243° |
| 2026-05-06 18:07 | 51.81613 | 4.30620 | 2007 ft | 238 kts | 245° |
| 2026-05-06 18:07 | 51.81288 | 4.28017 | 2010 ft | 235 kts | 278° |
| 2026-05-06 18:07 | 51.81845 | 4.25647 | 2009 ft | 228 kts | 312° |
| 2026-05-06 18:08 | 51.83033 | 4.24010 | 2014 ft | 224 kts | 330° |
| 2026-05-06 18:08 | 51.84353 | 4.22663 | 2010 ft | 224 kts | 332° |
| 2026-05-06 18:08 | 51.85769 | 4.21761 | 1999 ft | 216 kts | 2° |
| 2026-05-06 18:08 | 51.87084 | 4.22479 | 1994 ft | 191 kts | 46° |
| 2026-05-06 18:09 | 51.87759 | 4.24241 | 2009 ft | 181 kts | 61° |
| 2026-05-06 18:09 | 51.88416 | 4.25934 | 2006 ft | 176 kts | 57° |
| 2026-05-06 18:09 | 51.89091 | 4.27590 | 2008 ft | 175 kts | 57° |
| 2026-05-06 18:09 | 51.89756 | 4.29235 | 1945 ft | 175 kts | 57° |
| 2026-05-06 18:10 | 51.90422 | 4.30888 | 1772 ft | 176 kts | 57° |
| 2026-05-06 18:10 | 51.91087 | 4.32543 | 1554 ft | 174 kts | 57° |
| 2026-05-06 18:10 | 51.91724 | 4.34128 | 1341 ft | 161 kts | 58° |
| 2026-05-06 18:10 | 51.92309 | 4.35585 | 1117 ft | 148 kts | 57° |
| 2026-05-06 18:11 | 51.92845 | 4.36922 | 935 ft | 135 kts | 58° |
| 2026-05-06 18:11 | 51.93344 | 4.38164 | 740 ft | 128 kts | 58° |
| 2026-05-06 18:11 | 51.93830 | 4.39377 | 565 ft | 128 kts | 57° |
| 2026-05-06 18:11 | 51.94308 | 4.40572 | 391 ft | 125 kts | 58° |
| 2026-05-06 18:12 | 51.94789 | 4.41771 | 229 ft | 127 kts | 57° |
| 2026-05-06 18:12 | 51.95267 | 4.42966 | 57 ft | 126 kts | 57° |
| 2026-05-06 18:12 | 51.95716 | 4.44093 | 1 ft | 101 kts | 57° |
| 2026-05-06 18:12 | 51.95971 | 4.44732 | -1 ft | 26 kts | 57° |
| 2026-05-06 18:13 | 51.96043 | 4.44915 | 1 ft | 27 kts | 57° |
| 2026-05-06 18:13 | 51.96133 | 4.45145 | 2 ft | 21 kts | 61° |
| 2026-05-06 18:13 | 51.96112 | 4.45365 | 1 ft | 22 kts | 138° |
| 2026-05-06 18:13 | 51.95993 | 4.45278 | 1 ft | 21 kts | 237° |
| 2026-05-06 18:14 | 51.95917 | 4.45084 | 2 ft | 20 kts | 237° |
| 2026-05-06 18:14 | 51.95844 | 4.44904 | 1 ft | 18 kts | 237° |
| 2026-05-06 18:14 | 51.95776 | 4.44737 | 1 ft | 17 kts | 237° |
| 2026-05-06 18:14 | 51.95713 | 4.44581 | 1 ft | 16 kts | 237° |
| 2026-05-06 18:15 | 51.95655 | 4.44438 | 1 ft | 15 kts | 237° |
| 2026-05-06 18:15 | 51.95600 | 4.44302 | 2 ft | 15 kts | 237° |
| 2026-05-06 18:15 | 51.95538 | 4.44147 | 1 ft | 16 kts | 237° |
| 2026-05-06 18:15 | 51.95477 | 4.43997 | 1 ft | 15 kts | 237° |
| 2026-05-06 18:16 | 51.95424 | 4.43855 | 1 ft | 14 kts | 239° |
| 2026-05-06 18:16 | 51.95373 | 4.43721 | 2 ft | 13 kts | 238° |
| 2026-05-06 18:16 | 51.95322 | 4.43600 | 1 ft | 13 kts | 236° |
| 2026-05-06 18:16 | 51.95282 | 4.43501 | 1 ft | 8 kts | 236° |
| 2026-05-06 18:17 | 51.95241 | 4.43456 | 1 ft | 7 kts | 179° |
| 2026-05-06 18:17 | 51.95199 | 4.43484 | 1 ft | 6 kts | 156° |
| 2026-05-06 18:17 | 51.95162 | 4.43469 | 1 ft | 5 kts | 227° |
| 2026-05-06 18:17 | 51.95170 | 4.43422 | 2 ft | 5 kts | 316° |
| 2026-05-06 18:18 | 51.95179 | 4.43410 | 1 ft | 0 kts | 320° |